aviador You're here:

LFOB Decoded Metar

BEAUVAIS in FRANCE
Report Time2017-11-20 22:30:00
UTC Time2017-11-20 22:59:15
Flight Rules mvfr MVFR
Wind240° at 12 kt
W.Decomp.*RWY 22: 11.2 kt HW 4.3 kt RCW
RWY 30: 6.2 kt HW 10.3 kt LCW
W.Rank240° ranks 1
Current wind is above 240° avg. (8.8)
Visibility9999 m
Phenomena:N/A
Clouds:Few 012 Hf
Broken 025 Hf
Broken 076 Hf
Expected CloudBase > 800 ft AGL from Temp-Dew spread
Ceiling2,500 ft
Temp10°C (ISA -4)
Dew Point08°C (88% RH)
AAT5.2°C
QNH1017 hPa
Density Alt-138 ft
Elevation364 ft
Report Wrong Elevation
Raw Report
LFOB 202230Z AUTO 24012KT 9999 FEW012 BKN025 BKN076 10/08 Q1017
NOSIG=

Extra information for LFOB:More info

Metar Taf Metar & Taf Last 4 Metars F.Rules Stats Wind Profile Meteogram Temp Stats Airport Information Weather charts Add Link Nearby VenuesMetar ALERT Operation Metar Decoded Social comments